createdAt,value
2023-10-31T00:01:21.051Z,1.67
2023-10-31T00:03:47.337Z,1.25
2023-10-31T00:06:13.656Z,1.77
2023-10-31T00:08:39.942Z,1.40
2023-10-31T00:11:06.755Z,1.40
2023-10-31T00:13:33.225Z,1.30
2023-10-31T00:15:59.562Z,1.33
2023-10-31T00:18:25.928Z,1.00
2023-10-31T00:20:52.434Z,1.20
2023-10-31T00:23:18.686Z,1.05
2023-10-31T00:25:45.138Z,1.15
2023-10-31T00:28:11.626Z,1.30
2023-10-31T00:30:37.891Z,1.25
2023-10-31T00:33:04.134Z,1.17
2023-10-31T00:35:31.653Z,1.25
2023-10-31T00:37:58.017Z,1.10
2023-10-31T00:40:24.349Z,1.20
2023-10-31T00:42:50.607Z,1.20
2023-10-31T00:45:16.880Z,1.52
2023-10-31T00:47:43.233Z,1.02
2023-10-31T00:50:10.025Z,1.10
2023-10-31T00:52:36.410Z,1.30
2023-10-31T00:55:02.775Z,1.00
2023-10-31T00:57:29.075Z,1.00
2023-10-31T00:59:55.365Z,1.30
2023-10-31T01:02:21.789Z,1.17
2023-10-31T01:04:48.191Z,1.20
2023-10-31T01:07:17.935Z,1.05
2023-10-31T01:09:45.393Z,1.30
2023-10-31T01:12:12.269Z,1.02
2023-10-31T01:14:38.530Z,1.20
2023-10-31T01:17:04.895Z,0.73
2023-10-31T01:19:31.226Z,1.30
2023-10-31T01:21:57.505Z,1.30
2023-10-31T01:24:24.478Z,1.10
2023-10-31T01:26:50.743Z,0.98
2023-10-31T01:29:17.029Z,1.20
2023-10-31T01:31:55.568Z,1.10
2023-10-31T01:34:25.779Z,1.50
2023-10-31T01:36:52.011Z,1.13
2023-10-31T01:39:19.110Z,1.23
2023-10-31T01:41:45.537Z,1.30
2023-10-31T01:44:11.833Z,1.33
2023-10-31T01:46:38.229Z,1.50
2023-10-31T01:49:04.572Z,1.10
2023-10-31T01:51:30.864Z,1.15
2023-10-31T01:53:57.466Z,1.20
2023-10-31T01:56:24.085Z,1.30
2023-10-31T01:58:50.691Z,1.30
2023-10-31T02:01:17.631Z,1.20
2023-10-31T02:03:43.947Z,1.20
2023-10-31T02:06:10.219Z,1.30
2023-10-31T02:08:36.601Z,1.50
2023-10-31T02:11:03.030Z,1.30
2023-10-31T02:13:29.366Z,1.38
2023-10-31T02:15:55.713Z,1.58
2023-10-31T02:18:22.250Z,1.40
2023-10-31T02:20:49.179Z,1.50
2023-10-31T02:23:18.267Z,1.50
2023-10-31T02:25:44.524Z,1.23
2023-10-31T02:28:10.807Z,1.65
2023-10-31T02:30:37.105Z,1.50
2023-10-31T02:33:03.664Z,1.48
2023-10-31T02:35:29.981Z,1.50
2023-10-31T02:37:56.297Z,1.15
2023-10-31T02:40:22.604Z,1.70
2023-10-31T02:42:49.136Z,1.63
2023-10-31T02:45:15.610Z,1.50
2023-10-31T02:47:41.875Z,1.27
2023-10-31T02:50:08.503Z,1.50
2023-10-31T02:52:34.763Z,1.30
2023-10-31T02:55:01.197Z,1.33
2023-10-31T02:57:27.471Z,1.33
2023-10-31T02:59:53.711Z,1.40
2023-10-31T03:02:20.051Z,1.50
2023-10-31T03:04:46.454Z,1.00
2023-10-31T03:07:12.750Z,1.05
2023-10-31T03:09:39.037Z,1.58
2023-10-31T03:12:05.415Z,1.00
2023-10-31T03:14:31.710Z,1.30
2023-10-31T03:16:57.966Z,1.35
2023-10-31T03:19:24.306Z,1.30
2023-10-31T03:21:50.739Z,1.42
2023-10-31T03:24:17.025Z,1.75
2023-10-31T03:26:43.329Z,1.50
2023-10-31T03:29:09.659Z,1.35
2023-10-31T03:31:36.200Z,1.50
2023-10-31T03:34:02.494Z,1.30
2023-10-31T03:36:28.711Z,1.40
2023-10-31T03:38:54.986Z,1.40
2023-10-31T03:41:21.294Z,1.48
2023-10-31T03:43:48.202Z,1.50
2023-10-31T03:46:14.512Z,1.40
2023-10-31T03:48:40.742Z,1.55
2023-10-31T03:51:07.013Z,1.40
2023-10-31T03:53:33.300Z,1.20
2023-10-31T03:56:00.197Z,1.40
2023-10-31T03:58:26.435Z,1.35
2023-10-31T04:00:52.735Z,1.48
2023-10-31T04:03:19.089Z,1.10
2023-10-31T04:05:45.681Z,1.50
2023-10-31T04:08:12.003Z,1.45
2023-10-31T04:10:38.340Z,1.50
2023-10-31T04:13:04.620Z,1.20
2023-10-31T04:15:30.866Z,1.42
2023-10-31T04:17:57.134Z,1.40
2023-10-31T04:20:23.512Z,1.20
2023-10-31T04:22:49.984Z,1.40
2023-10-31T04:25:16.267Z,1.40
2023-10-31T04:27:42.790Z,1.38
2023-10-31T04:30:11.551Z,1.30
2023-10-31T04:32:39.113Z,1.50
2023-10-31T04:35:05.605Z,1.60
2023-10-31T04:37:35.191Z,1.80
2023-10-31T04:40:01.659Z,1.40
2023-10-31T04:42:28.165Z,1.40
2023-10-31T04:44:54.424Z,1.92
2023-10-31T04:47:21.201Z,1.52
2023-10-31T04:49:48.209Z,1.40
2023-10-31T04:52:14.633Z,1.40
2023-10-31T04:54:41.180Z,1.35
2023-10-31T04:57:07.417Z,1.48
2023-10-31T04:59:33.688Z,1.20
2023-10-31T05:02:00.010Z,1.27
2023-10-31T05:04:26.754Z,1.60
2023-10-31T05:06:53.157Z,1.23
2023-10-31T05:09:21.173Z,1.30
2023-10-31T05:11:47.954Z,1.50
2023-10-31T05:14:14.353Z,1.60
2023-10-31T05:16:41.827Z,2.00
2023-10-31T05:19:08.183Z,1.42
2023-10-31T05:21:34.448Z,1.67
2023-10-31T05:24:00.729Z,1.55
2023-10-31T05:26:28.766Z,1.50
2023-10-31T05:28:55.198Z,1.33
2023-10-31T05:31:21.540Z,1.80
2023-10-31T05:33:47.872Z,1.63
2023-10-31T05:36:24.334Z,1.38
2023-10-31T05:38:50.665Z,1.33
2023-10-31T05:41:17.170Z,1.50
2023-10-31T05:43:43.664Z,1.50
2023-10-31T05:46:11.521Z,1.42
2023-10-31T05:48:41.520Z,1.35
2023-10-31T05:51:18.194Z,1.50
2023-10-31T05:53:45.401Z,1.50
2023-10-31T05:56:13.079Z,2.33
2023-10-31T06:01:06.195Z,1.58
2023-10-31T06:03:33.301Z,2.17
2023-10-31T06:06:00.022Z,1.42
2023-10-31T06:08:28.954Z,2.17
2023-10-31T06:10:56.666Z,1.38
2023-10-31T06:13:23.281Z,1.60
2023-10-31T06:15:49.568Z,1.15
2023-10-31T06:18:17.497Z,1.20
2023-10-31T06:20:43.906Z,1.08
2023-10-31T06:23:10.555Z,1.30
2023-10-31T06:25:36.856Z,1.27
2023-10-31T06:28:03.152Z,1.33
2023-10-31T06:30:29.694Z,0.88
2023-10-31T06:32:56.229Z,1.40
2023-10-31T06:35:25.534Z,1.17
2023-10-31T06:37:52.381Z,1.42
2023-10-31T06:40:18.699Z,1.50
2023-10-31T06:42:44.971Z,1.42
2023-10-31T06:45:11.210Z,1.30
2023-10-31T06:47:37.524Z,1.48
2023-10-31T06:50:04.071Z,1.20
2023-10-31T06:52:30.479Z,1.30
2023-10-31T06:54:56.775Z,1.83
2023-10-31T06:57:23.048Z,0.65
2023-10-31T06:59:49.322Z,1.17
2023-10-31T07:02:15.652Z,0.98
2023-10-31T07:04:42.017Z,0.95
2023-10-31T07:07:08.377Z,1.30
2023-10-31T07:09:34.772Z,1.20
2023-10-31T07:12:01.039Z,1.42
2023-10-31T07:14:27.289Z,1.48
2023-10-31T07:16:53.633Z,0.82
2023-10-31T07:19:20.002Z,1.42
2023-10-31T07:21:46.327Z,1.50
2023-10-31T07:24:12.672Z,1.20
2023-10-31T07:26:38.954Z,1.50
2023-10-31T07:29:05.292Z,0.90
2023-10-31T07:31:31.605Z,1.48
2023-10-31T07:33:58.055Z,1.20
2023-10-31T07:36:24.410Z,1.42
2023-10-31T07:38:50.692Z,0.75
2023-10-31T07:41:17.159Z,1.70
2023-10-31T07:43:43.451Z,0.80
2023-10-31T07:46:09.812Z,1.00
2023-10-31T07:48:36.116Z,1.40
2023-10-31T07:51:02.441Z,1.25
2023-10-31T07:53:28.995Z,1.33
2023-10-31T07:55:55.423Z,1.65
2023-10-31T07:58:22.116Z,1.30
2023-10-31T08:00:48.493Z,1.02
2023-10-31T08:03:15.044Z,1.10
2023-10-31T08:05:41.612Z,1.30
2023-10-31T08:08:07.933Z,1.15
2023-10-31T08:10:35.465Z,1.48
2023-10-31T08:13:02.002Z,1.02
2023-10-31T08:15:28.505Z,1.10
2023-10-31T08:17:55.384Z,1.05
2023-10-31T08:20:22.066Z,1.30
2023-10-31T08:22:48.419Z,1.42
2023-10-31T08:25:17.878Z,1.40
2023-10-31T08:27:44.402Z,1.17
2023-10-31T08:30:10.912Z,0.82
2023-10-31T08:32:37.284Z,0.88
2023-10-31T08:35:04.251Z,1.10
2023-10-31T08:37:30.762Z,0.80
2023-10-31T08:39:57.309Z,1.30
2023-10-31T08:42:23.644Z,0.98
2023-10-31T08:44:50.199Z,1.20
2023-10-31T08:47:16.967Z,1.20
2023-10-31T08:49:43.404Z,1.33
2023-10-31T08:52:09.733Z,1.33
2023-10-31T08:54:36.211Z,1.40
2023-10-31T08:57:02.655Z,0.85
2023-10-31T08:59:31.585Z,1.35
2023-10-31T09:01:58.091Z,1.45
2023-10-31T09:04:24.496Z,0.95
2023-10-31T09:06:51.040Z,1.02
2023-10-31T09:09:17.514Z,1.58
2023-10-31T09:11:44.167Z,1.05
2023-10-31T09:14:10.914Z,1.30
2023-10-31T09:16:37.528Z,1.15
2023-10-31T09:19:03.886Z,1.15
2023-10-31T09:21:30.372Z,1.25
2023-10-31T09:23:59.911Z,1.40
2023-10-31T09:26:26.476Z,1.30
2023-10-31T09:28:52.880Z,1.50
2023-10-31T09:31:19.674Z,1.27
2023-10-31T09:33:47.012Z,1.05
2023-10-31T09:36:14.799Z,0.93
2023-10-31T09:41:07.923Z,0.80
2023-10-31T09:43:34.583Z,1.35
2023-10-31T09:46:02.456Z,1.70
2023-10-31T09:48:29.500Z,1.00
2023-10-31T09:50:56.639Z,1.48
2023-10-31T09:53:23.112Z,0.93
2023-10-31T09:55:49.831Z,1.00
2023-10-31T09:58:16.189Z,0.95
2023-10-31T10:00:42.515Z,0.88
2023-10-31T10:03:11.755Z,0.98
2023-10-31T10:05:40.163Z,1.10
2023-10-31T10:08:07.671Z,1.10
2023-10-31T10:10:37.035Z,1.30
2023-10-31T10:13:04.901Z,0.95
2023-10-31T10:15:31.431Z,0.95
2023-10-31T10:17:57.902Z,0.95
2023-10-31T10:20:24.366Z,1.10
2023-10-31T10:22:51.106Z,0.80
2023-10-31T10:25:19.663Z,1.20
2023-10-31T10:27:54.116Z,1.30
2023-10-31T10:30:20.592Z,1.17
2023-10-31T10:32:50.307Z,0.95
2023-10-31T10:35:20.478Z,0.73
2023-10-31T10:37:47.901Z,1.15
2023-10-31T10:40:14.515Z,1.17
2023-10-31T10:42:41.007Z,1.20
2023-10-31T10:45:08.637Z,1.52
2023-10-31T10:50:04.909Z,1.20
2023-10-31T10:52:46.090Z,1.30
2023-10-31T10:55:13.920Z,1.33
2023-10-31T10:57:47.713Z,0.68
2023-10-31T11:00:14.532Z,1.38
2023-10-31T11:02:44.339Z,1.10
2023-10-31T11:05:11.378Z,1.95
2023-10-31T11:07:38.693Z,2.70
2023-10-31T11:10:06.163Z,1.42
2023-10-31T11:12:33.545Z,0.63
2023-10-31T11:15:01.342Z,1.30
2023-10-31T11:17:39.191Z,1.45
2023-10-31T11:20:06.549Z,1.67
2023-10-31T11:22:43.604Z,1.50
2023-10-31T11:25:16.583Z,1.08
2023-10-31T11:27:49.246Z,1.58
2023-10-31T11:30:31.685Z,1.40
2023-10-31T11:33:02.293Z,1.80
2023-10-31T11:35:31.992Z,1.05
2023-10-31T11:38:02.981Z,2.03
2023-10-31T11:40:30.284Z,0.88
2023-10-31T11:42:58.485Z,1.00
2023-10-31T11:45:29.673Z,1.10
2023-10-31T11:47:56.657Z,1.15
2023-10-31T11:50:26.548Z,1.05
2023-10-31T11:53:03.751Z,1.20
2023-10-31T11:55:30.605Z,1.02
2023-10-31T11:57:56.912Z,1.30
2023-10-31T12:00:23.941Z,1.00
2023-10-31T12:03:03.003Z,1.50
2023-10-31T12:05:29.539Z,1.60
2023-10-31T12:07:57.748Z,1.50
2023-10-31T12:10:26.456Z,1.38
2023-10-31T12:12:54.318Z,1.45
2023-10-31T12:15:20.727Z,0.98
2023-10-31T12:17:47.272Z,1.08
2023-10-31T12:20:13.693Z,1.02
2023-10-31T12:22:41.207Z,1.50
2023-10-31T12:25:08.460Z,1.13
2023-10-31T12:27:43.413Z,1.10
2023-10-31T12:30:10.016Z,1.00
2023-10-31T12:32:36.391Z,1.25
2023-10-31T12:35:02.988Z,1.23
2023-10-31T12:37:29.600Z,1.92
2023-10-31T12:39:57.050Z,1.20
2023-10-31T12:42:24.251Z,1.50
2023-10-31T12:44:50.512Z,1.40
2023-10-31T12:47:23.442Z,1.40
2023-10-31T12:50:04.177Z,1.33
2023-10-31T12:52:48.801Z,1.38
2023-10-31T12:55:19.695Z,1.58
2023-10-31T12:57:47.380Z,1.33
2023-10-31T13:00:15.088Z,1.80
2023-10-31T13:05:15.222Z,1.70
2023-10-31T13:07:48.298Z,1.30
2023-10-31T13:10:16.675Z,1.58
2023-10-31T13:12:49.309Z,1.70
2023-10-31T13:15:16.155Z,1.80
2023-10-31T13:17:45.348Z,1.70
2023-10-31T13:20:12.448Z,1.83
2023-10-31T13:22:39.027Z,1.80
2023-10-31T13:25:08.268Z,1.80
2023-10-31T13:27:36.227Z,1.73
2023-10-31T13:30:03.239Z,1.50
2023-10-31T13:32:29.653Z,1.52
2023-10-31T13:34:56.010Z,0.90
2023-10-31T13:37:22.499Z,1.27
2023-10-31T13:39:48.781Z,0.85
2023-10-31T13:42:15.490Z,1.30
2023-10-31T13:44:42.102Z,1.20
2023-10-31T13:47:08.747Z,1.42
2023-10-31T13:49:35.024Z,1.02
2023-10-31T13:52:01.278Z,1.30
2023-10-31T13:54:27.882Z,1.48
2023-10-31T13:56:54.228Z,1.20
2023-10-31T13:59:21.142Z,1.27
2023-10-31T14:01:48.041Z,1.30
2023-10-31T14:04:14.877Z,1.17
2023-10-31T14:06:42.369Z,1.45
2023-10-31T14:09:09.658Z,1.70
2023-10-31T14:11:36.015Z,2.00
2023-10-31T14:14:07.418Z,1.50
2023-10-31T14:16:34.709Z,1.85
2023-10-31T14:19:01.252Z,1.70
2023-10-31T14:21:27.758Z,1.52
2023-10-31T14:23:59.344Z,1.00
2023-10-31T14:26:31.122Z,1.17
2023-10-31T14:28:57.368Z,1.40
2023-10-31T14:31:23.869Z,1.10
2023-10-31T14:33:50.360Z,1.30
2023-10-31T14:36:16.804Z,1.33
2023-10-31T14:38:43.180Z,1.30
2023-10-31T14:41:09.866Z,1.40
2023-10-31T14:43:36.501Z,1.25
2023-10-31T14:46:03.225Z,0.85
2023-10-31T14:48:31.333Z,1.10
2023-10-31T14:50:58.495Z,1.02
2023-10-31T14:53:24.852Z,1.38
2023-10-31T14:55:51.168Z,1.40
2023-10-31T14:58:17.401Z,1.50
2023-10-31T15:00:43.711Z,1.23
2023-10-31T15:03:10.228Z,1.30
2023-10-31T15:05:36.698Z,1.42
2023-10-31T15:08:03.622Z,1.38
2023-10-31T15:10:30.080Z,1.60
2023-10-31T15:12:56.398Z,1.30
2023-10-31T15:15:22.666Z,2.05
2023-10-31T15:17:49.274Z,1.70
2023-10-31T15:20:15.936Z,1.60
2023-10-31T15:22:43.110Z,1.60
2023-10-31T15:25:12.477Z,1.50
2023-10-31T15:27:39.032Z,1.60
2023-10-31T15:30:07.579Z,1.50
2023-10-31T15:32:35.210Z,1.42
2023-10-31T15:35:02.660Z,1.67
2023-10-31T15:37:29.105Z,1.25
2023-10-31T15:39:55.484Z,1.60
2023-10-31T15:42:23.897Z,1.80
2023-10-31T15:44:50.814Z,1.60
2023-10-31T15:47:17.171Z,2.10
2023-10-31T15:49:43.500Z,1.67
2023-10-31T15:52:09.764Z,2.17
2023-10-31T15:54:36.021Z,1.80
2023-10-31T15:57:02.243Z,1.80
2023-10-31T15:59:28.640Z,1.45
2023-10-31T16:01:55.014Z,2.22
2023-10-31T16:04:24.505Z,2.38
2023-10-31T16:06:50.868Z,2.00
2023-10-31T16:09:17.204Z,2.10
2023-10-31T16:11:43.559Z,2.40
2023-10-31T16:14:09.837Z,1.90
2023-10-31T16:16:36.324Z,1.90
2023-10-31T16:19:02.768Z,2.05
2023-10-31T16:21:29.137Z,1.67
2023-10-31T16:23:59.250Z,1.92
2023-10-31T16:26:25.635Z,2.20
2023-10-31T16:28:52.491Z,2.60
2023-10-31T16:31:21.233Z,2.00
2023-10-31T16:33:47.805Z,2.08
2023-10-31T16:36:14.129Z,2.15
2023-10-31T16:38:40.985Z,2.13
2023-10-31T16:41:08.302Z,2.30
2023-10-31T16:43:35.785Z,2.40
2023-10-31T16:46:02.131Z,1.65
2023-10-31T16:48:28.410Z,2.25
2023-10-31T16:50:54.827Z,2.08
2023-10-31T16:53:22.142Z,2.17
2023-10-31T16:55:48.543Z,2.00
2023-10-31T16:58:17.071Z,2.30
2023-10-31T17:00:43.728Z,2.25
2023-10-31T17:03:14.152Z,2.15
2023-10-31T17:05:40.698Z,2.30
2023-10-31T17:08:07.136Z,3.28
2023-10-31T17:10:33.428Z,2.78
2023-10-31T17:12:59.678Z,3.08
2023-10-31T17:15:26.013Z,3.00
2023-10-31T17:17:52.311Z,3.03
2023-10-31T17:20:18.621Z,3.67
2023-10-31T17:22:45.096Z,3.65
2023-10-31T17:25:11.373Z,2.97
2023-10-31T17:27:37.632Z,2.42
2023-10-31T17:30:06.245Z,2.20
2023-10-31T17:32:34.079Z,2.05
2023-10-31T17:35:00.415Z,2.60
2023-10-31T17:37:27.063Z,2.72
2023-10-31T17:39:53.408Z,2.67
2023-10-31T17:42:19.755Z,2.70
2023-10-31T17:44:46.043Z,2.40
2023-10-31T17:47:12.352Z,2.83
2023-10-31T17:49:38.722Z,2.20
2023-10-31T17:52:05.720Z,2.20
2023-10-31T17:54:32.499Z,2.05
2023-10-31T17:56:58.846Z,2.38
2023-10-31T17:59:25.164Z,2.50
2023-10-31T18:01:54.840Z,2.20
2023-10-31T18:04:21.570Z,1.85
2023-10-31T18:06:47.984Z,1.70
2023-10-31T18:09:14.373Z,1.92
2023-10-31T18:11:41.517Z,1.73
2023-10-31T18:14:10.830Z,1.80
2023-10-31T18:16:37.116Z,1.60
2023-10-31T18:19:03.744Z,1.15
2023-10-31T18:21:30.089Z,1.77
2023-10-31T18:23:56.739Z,1.48
2023-10-31T18:26:23.032Z,1.80
2023-10-31T18:28:51.542Z,1.55
2023-10-31T18:31:18.069Z,1.90
2023-10-31T18:33:44.402Z,2.30
2023-10-31T18:36:10.800Z,2.03
2023-10-31T18:38:37.564Z,2.10
2023-10-31T18:41:04.427Z,1.80
2023-10-31T18:43:30.770Z,2.15
2023-10-31T18:45:57.037Z,2.10
2023-10-31T18:48:23.340Z,2.28
2023-10-31T18:50:49.649Z,2.58
2023-10-31T18:53:16.352Z,2.33
2023-10-31T18:55:42.684Z,2.30
2023-10-31T18:58:09.444Z,2.10
2023-10-31T19:00:35.736Z,2.13
2023-10-31T19:03:02.911Z,2.28
2023-10-31T19:05:30.012Z,1.83
2023-10-31T19:07:56.821Z,1.80
2023-10-31T19:10:23.273Z,2.10
2023-10-31T19:12:49.617Z,1.70
2023-10-31T19:15:15.848Z,2.75
2023-10-31T19:17:43.772Z,2.60
2023-10-31T19:20:11.299Z,2.10
2023-10-31T19:22:37.900Z,2.30
2023-10-31T19:25:04.486Z,2.10
2023-10-31T19:27:31.132Z,1.70
2023-10-31T19:29:58.973Z,3.13
2023-10-31T19:32:25.335Z,2.10
2023-10-31T19:34:51.955Z,1.70
2023-10-31T19:37:18.326Z,2.10
2023-10-31T19:39:44.704Z,1.98
2023-10-31T19:42:11.000Z,1.70
2023-10-31T19:44:38.706Z,1.70
2023-10-31T19:47:05.186Z,1.83
2023-10-31T19:49:31.440Z,1.63
2023-10-31T19:51:57.927Z,1.88
2023-10-31T19:54:25.744Z,1.58
2023-10-31T19:56:53.168Z,1.77
2023-10-31T19:59:19.539Z,1.55
2023-10-31T20:01:45.881Z,1.90
2023-10-31T20:04:12.679Z,1.65
2023-10-31T20:06:39.050Z,1.35
2023-10-31T20:09:06.986Z,1.65
2023-10-31T20:11:34.340Z,1.52
2023-10-31T20:14:00.752Z,1.60
2023-10-31T20:16:27.109Z,1.70
2023-10-31T20:18:53.528Z,1.70
2023-10-31T20:21:21.559Z,1.70
2023-10-31T20:23:47.974Z,2.30
2023-10-31T20:26:18.781Z,2.03
2023-10-31T20:28:45.209Z,1.92
2023-10-31T20:31:11.973Z,1.92
2023-10-31T20:33:38.988Z,1.20
2023-10-31T20:36:05.571Z,1.83
2023-10-31T20:38:31.892Z,2.13
2023-10-31T20:40:58.371Z,2.30
2023-10-31T20:43:24.669Z,2.10
2023-10-31T20:45:50.927Z,2.10
2023-10-31T20:48:17.213Z,2.10
2023-10-31T20:50:43.546Z,2.00
2023-10-31T20:53:09.879Z,2.20
2023-10-31T20:55:36.119Z,2.13
2023-10-31T20:58:03.296Z,2.10
2023-10-31T21:00:29.597Z,2.08
2023-10-31T21:02:56.162Z,1.95
2023-10-31T21:05:23.299Z,2.08
2023-10-31T21:07:49.634Z,2.13
2023-10-31T21:10:16.016Z,2.03
2023-10-31T21:12:43.006Z,1.60
2023-10-31T21:15:09.498Z,2.03
2023-10-31T21:17:36.871Z,2.17
2023-10-31T21:20:03.379Z,1.83
2023-10-31T21:22:29.604Z,2.28
2023-10-31T21:24:58.160Z,1.90
2023-10-31T21:27:24.466Z,1.80
2023-10-31T21:29:50.803Z,1.80
2023-10-31T21:32:17.112Z,2.22
2023-10-31T21:34:43.634Z,2.30
2023-10-31T21:37:10.861Z,2.00
2023-10-31T21:39:37.730Z,1.90
2023-10-31T21:42:04.054Z,1.83
2023-10-31T21:44:30.273Z,1.48
2023-10-31T21:46:59.761Z,2.10
2023-10-31T21:49:27.652Z,2.42
2023-10-31T21:51:54.766Z,1.80
2023-10-31T21:54:21.398Z,1.60
2023-10-31T21:56:48.389Z,1.60
2023-10-31T21:59:15.160Z,1.80
2023-10-31T22:01:41.529Z,2.00
2023-10-31T22:04:07.920Z,2.10
2023-10-31T22:06:34.556Z,1.80
2023-10-31T22:09:00.841Z,1.60
2023-10-31T22:11:27.147Z,1.98
2023-10-31T22:13:53.920Z,2.05
2023-10-31T22:16:20.353Z,2.00
2023-10-31T22:18:47.244Z,2.00
2023-10-31T22:21:13.535Z,1.83
2023-10-31T22:23:39.876Z,1.83
2023-10-31T22:26:06.837Z,2.13
2023-10-31T22:28:33.494Z,2.00
2023-10-31T22:31:00.765Z,1.90
2023-10-31T22:33:27.063Z,2.00
2023-10-31T22:35:53.888Z,2.78
2023-10-31T22:38:20.342Z,2.15
2023-10-31T22:40:46.583Z,2.10
2023-10-31T22:43:12.841Z,1.90
2023-10-31T22:45:39.132Z,2.10
2023-10-31T22:48:05.517Z,1.75
2023-10-31T22:50:31.829Z,2.00
2023-10-31T22:52:58.112Z,2.00
2023-10-31T22:55:28.266Z,1.90
2023-10-31T22:57:54.828Z,2.10
2023-10-31T23:00:27.809Z,1.83
2023-10-31T23:02:55.020Z,2.22
2023-10-31T23:05:21.576Z,2.13
2023-10-31T23:10:15.208Z,2.05
2023-10-31T23:12:41.525Z,1.90
2023-10-31T23:15:12.910Z,2.10
2023-10-31T23:17:40.003Z,2.10
2023-10-31T23:20:07.197Z,2.05
2023-10-31T23:22:33.473Z,2.10
2023-10-31T23:25:00.065Z,2.08
2023-10-31T23:27:26.692Z,2.20
2023-10-31T23:29:53.066Z,2.05
2023-10-31T23:32:19.398Z,2.20
2023-10-31T23:34:45.665Z,2.10
2023-10-31T23:37:11.938Z,2.30
2023-10-31T23:39:38.281Z,2.40
2023-10-31T23:42:04.741Z,2.40
2023-10-31T23:44:31.052Z,2.35
2023-10-31T23:46:57.445Z,2.00
2023-10-31T23:49:24.069Z,2.40
2023-10-31T23:51:51.827Z,2.58
2023-10-31T23:54:18.145Z,2.35
2023-10-31T23:56:44.734Z,2.40
2023-10-31T23:59:11.417Z,2.30
